createdAt,value
2019-05-03T00:02:28.016Z,2.97
2019-05-03T00:05:27.156Z,3.00
2019-05-03T00:08:17.280Z,3.20
2019-05-03T00:11:07.794Z,2.93
2019-05-03T00:13:58.263Z,3.20
2019-05-03T00:16:52.105Z,3.13
2019-05-03T00:19:42.314Z,3.00
2019-05-03T00:22:33.756Z,2.90
2019-05-03T00:25:24.133Z,3.67
2019-05-03T00:28:14.788Z,3.60
2019-05-03T00:31:05.465Z,3.23
2019-05-03T00:34:02.269Z,3.40
2019-05-03T00:36:55.808Z,2.77
2019-05-03T00:40:06.412Z,3.40
2019-05-03T00:42:56.787Z,3.27
2019-05-03T00:45:46.973Z,3.23
2019-05-03T00:48:37.195Z,3.80
2019-05-03T00:51:27.405Z,4.07
2019-05-03T00:54:17.858Z,3.53
2019-05-03T00:57:08.523Z,4.00
2019-05-03T00:59:59.030Z,3.73
2019-05-03T01:02:49.392Z,3.73
2019-05-03T01:05:39.756Z,3.67
2019-05-03T01:08:30.037Z,3.40
2019-05-03T01:11:22.266Z,3.13
2019-05-03T01:14:13.258Z,3.30
2019-05-03T01:17:03.680Z,3.37
2019-05-03T01:19:54.238Z,3.53
2019-05-03T01:22:44.685Z,3.77
2019-05-03T01:25:35.598Z,3.80
2019-05-03T01:28:26.015Z,3.67
2019-05-03T01:31:18.972Z,4.00
2019-05-03T01:34:09.208Z,4.10
2019-05-03T01:36:59.937Z,3.80
2019-05-03T01:39:52.438Z,3.80
2019-05-03T01:42:43.029Z,3.80
2019-05-03T01:45:33.673Z,3.70
2019-05-03T01:48:41.651Z,3.83
2019-05-03T01:51:52.606Z,3.70
2019-05-03T01:54:43.239Z,4.00
2019-05-03T01:57:33.509Z,4.90
2019-05-03T02:00:27.204Z,4.37
2019-05-03T02:03:24.695Z,4.43
2019-05-03T02:06:15.286Z,5.20
2019-05-03T02:09:08.511Z,5.23
2019-05-03T02:11:58.738Z,5.30
2019-05-03T02:14:49.176Z,5.10
2019-05-03T02:17:39.756Z,5.33
2019-05-03T02:20:32.381Z,5.30
2019-05-03T02:23:23.455Z,5.50
2019-05-03T02:26:13.932Z,5.60
2019-05-03T02:29:07.165Z,5.70
2019-05-03T02:31:57.666Z,5.50
2019-05-03T02:34:48.335Z,4.93
2019-05-03T02:37:43.721Z,5.33
2019-05-03T02:40:33.916Z,4.97
2019-05-03T02:43:28.568Z,5.00
2019-05-03T02:46:36.627Z,5.60
2019-05-03T02:49:37.576Z,5.40
2019-05-03T02:52:37.902Z,5.20
2019-05-03T02:55:28.317Z,5.03
2019-05-03T02:58:18.757Z,4.87
2019-05-03T03:01:09.282Z,4.60
2019-05-03T03:04:00.600Z,4.83
2019-05-03T03:06:50.857Z,4.77
2019-05-03T03:09:41.139Z,4.30
2019-05-03T03:12:31.708Z,4.67
2019-05-03T03:15:22.066Z,4.50
2019-05-03T03:18:12.517Z,4.73
2019-05-03T03:21:02.691Z,5.20
2019-05-03T03:24:06.424Z,5.73
2019-05-03T03:26:57.404Z,6.03
2019-05-03T03:29:48.976Z,6.23
2019-05-03T03:32:39.922Z,7.03
2019-05-03T03:35:32.198Z,6.43
2019-05-03T03:38:25.897Z,6.50
2019-05-03T03:41:16.293Z,6.50
2019-05-03T03:44:06.751Z,6.90
2019-05-03T03:46:57.310Z,6.33
2019-05-03T03:49:47.778Z,6.90
2019-05-03T03:52:38.483Z,7.00
2019-05-03T03:55:29.440Z,6.70
2019-05-03T03:58:22.831Z,6.90
2019-05-03T04:01:15.520Z,7.07
2019-05-03T04:04:05.586Z,6.23
2019-05-03T04:07:01.016Z,6.20
2019-05-03T04:09:48.422Z,5.47
2019-05-03T04:12:39.355Z,5.40
2019-05-03T04:15:40.334Z,5.70
2019-05-03T04:18:49.967Z,5.37
2019-05-03T04:21:40.501Z,5.03
2019-05-03T04:24:31.441Z,4.80
2019-05-03T04:27:24.390Z,5.70
2019-05-03T04:30:16.437Z,4.37
2019-05-03T04:33:06.920Z,4.55
2019-05-03T04:35:57.895Z,4.33
2019-05-03T04:38:48.916Z,4.55
2019-05-03T04:41:39.677Z,4.42
2019-05-03T04:44:30.564Z,4.50
2019-05-03T04:47:21.434Z,4.12
2019-05-03T04:50:12.582Z,4.20
2019-05-03T04:53:05.654Z,4.47
2019-05-03T04:55:56.528Z,4.10
2019-05-03T04:58:47.790Z,4.55
2019-05-03T05:01:38.951Z,4.00
2019-05-03T05:04:31.372Z,4.22
2019-05-03T05:07:22.379Z,4.00
2019-05-03T05:10:15.306Z,4.30
2019-05-03T05:13:06.813Z,4.08
2019-05-03T05:15:57.946Z,4.35
2019-05-03T05:18:55.999Z,4.20
2019-05-03T05:21:50.430Z,3.52
2019-05-03T05:24:41.122Z,3.80
2019-05-03T05:27:54.647Z,4.00
2019-05-03T05:30:44.457Z,4.00
2019-05-03T05:33:35.495Z,3.70
2019-05-03T05:36:27.206Z,4.20
2019-05-03T05:39:18.874Z,4.00
2019-05-03T05:42:09.720Z,3.90
2019-05-03T05:45:00.438Z,3.87
2019-05-03T05:48:05.469Z,4.10
2019-05-03T05:50:56.268Z,3.60
2019-05-03T05:53:47.037Z,4.10
2019-05-03T05:56:49.398Z,3.47
2019-05-03T05:59:49.010Z,3.97
2019-05-03T06:02:39.824Z,3.80
2019-05-03T06:05:30.705Z,4.00
2019-05-03T06:08:46.691Z,3.53
2019-05-03T06:11:51.211Z,3.80
2019-05-03T06:14:55.183Z,4.17
2019-05-03T06:17:57.073Z,4.10
2019-05-03T06:21:04.622Z,3.70
2019-05-03T06:24:00.036Z,4.10
2019-05-03T06:26:58.065Z,3.80
2019-05-03T06:29:50.144Z,3.60
2019-05-03T06:32:41.908Z,3.70
2019-05-03T06:35:34.476Z,3.90
2019-05-03T06:38:25.219Z,3.80
2019-05-03T06:41:16.312Z,4.00
2019-05-03T06:44:06.860Z,3.80
2019-05-03T06:47:01.103Z,4.03
2019-05-03T06:49:49.612Z,4.07
2019-05-03T06:52:40.301Z,3.90
2019-05-03T06:55:31.128Z,4.00
2019-05-03T06:58:31.251Z,3.73
2019-05-03T07:01:25.743Z,3.83
2019-05-03T07:04:24.574Z,3.80
2019-05-03T07:07:54.714Z,3.80
2019-05-03T07:10:49.300Z,3.63
2019-05-03T07:13:40.181Z,3.97
2019-05-03T07:16:30.984Z,3.97
2019-05-03T07:19:21.476Z,3.83
2019-05-03T07:22:12.047Z,3.70
2019-05-03T07:25:04.623Z,3.60
2019-05-03T07:27:55.729Z,3.70
2019-05-03T07:30:46.738Z,3.90
2019-05-03T07:33:37.669Z,3.90
2019-05-03T07:36:28.834Z,4.08
2019-05-03T07:39:19.641Z,3.70
2019-05-03T07:42:10.789Z,4.05
2019-05-03T07:45:01.745Z,3.80
2019-05-03T07:47:52.869Z,4.03
2019-05-03T07:50:44.718Z,3.90
2019-05-03T07:53:35.633Z,4.40
2019-05-03T07:56:31.427Z,4.15
2019-05-03T07:59:22.260Z,4.28
2019-05-03T08:02:14.485Z,4.35
2019-05-03T08:05:05.580Z,4.25
2019-05-03T08:07:57.321Z,4.45
2019-05-03T08:10:48.129Z,4.28
2019-05-03T08:13:38.899Z,3.90
2019-05-03T08:16:30.229Z,4.40
2019-05-03T08:19:23.588Z,4.50
2019-05-03T08:22:17.253Z,4.37
2019-05-03T08:25:08.109Z,4.03
2019-05-03T08:27:59.133Z,4.10
2019-05-03T08:31:15.261Z,4.30
2019-05-03T08:34:27.881Z,4.40
2019-05-03T08:37:24.494Z,4.28
2019-05-03T08:40:15.804Z,4.65
2019-05-03T08:43:07.872Z,4.20
2019-05-03T08:45:58.715Z,4.00
2019-05-03T08:48:49.734Z,3.85
2019-05-03T08:51:40.858Z,3.80
2019-05-03T08:54:31.617Z,3.90
2019-05-03T08:57:22.678Z,4.00
2019-05-03T09:00:17.729Z,3.85
2019-05-03T09:03:08.820Z,3.60
2019-05-03T09:05:59.997Z,3.90
2019-05-03T09:08:54.360Z,4.08
2019-05-03T09:11:45.354Z,3.98
2019-05-03T09:14:42.645Z,3.98
2019-05-03T09:17:28.899Z,3.70
2019-05-03T09:20:19.782Z,3.80
2019-05-03T09:23:11.681Z,3.47
2019-05-03T09:26:04.556Z,4.15
2019-05-03T09:28:55.731Z,3.70
2019-05-03T09:31:46.999Z,4.40
2019-05-03T09:34:38.106Z,3.98
2019-05-03T09:37:29.319Z,3.90
2019-05-03T09:40:20.336Z,4.30
2019-05-03T09:43:11.372Z,3.80
2019-05-03T09:46:02.265Z,3.90
2019-05-03T09:48:59.830Z,4.00
2019-05-03T09:51:47.584Z,4.10
2019-05-03T09:54:45.336Z,4.00
2019-05-03T09:57:36.859Z,3.33
2019-05-03T10:00:28.044Z,4.50
2019-05-03T10:03:18.506Z,4.13
2019-05-03T10:06:08.905Z,4.00
2019-05-03T10:08:59.141Z,4.20
2019-05-03T10:11:49.537Z,4.10
2019-05-03T10:14:40.017Z,3.80
2019-05-03T10:17:47.422Z,3.80
2019-05-03T10:20:38.051Z,4.70
2019-05-03T10:23:46.720Z,4.27
2019-05-03T10:26:37.061Z,4.50
2019-05-03T10:29:27.584Z,4.47
2019-05-03T10:32:41.129Z,4.03
2019-05-03T10:35:31.646Z,4.23
2019-05-03T10:38:24.962Z,4.07
2019-05-03T10:41:15.305Z,4.37
2019-05-03T10:44:06.158Z,4.13
2019-05-03T10:46:56.924Z,3.93
2019-05-03T10:49:48.368Z,4.33
2019-05-03T10:52:44.681Z,4.07
2019-05-03T10:55:35.765Z,3.97
2019-05-03T10:58:27.402Z,3.90
2019-05-03T11:01:19.802Z,4.10
2019-05-03T11:04:10.496Z,3.52
2019-05-03T11:07:00.911Z,3.40
2019-05-03T11:09:54.960Z,3.67
2019-05-03T11:12:44.607Z,3.70
2019-05-03T11:15:35.713Z,3.75
2019-05-03T11:18:26.896Z,3.40
2019-05-03T11:21:27.965Z,3.25
2019-05-03T11:24:10.614Z,3.42
2019-05-03T11:27:04.472Z,3.50
2019-05-03T11:29:55.747Z,3.33
2019-05-03T11:33:12.019Z,3.80
2019-05-03T11:36:16.312Z,4.00
2019-05-03T11:39:07.991Z,3.42
2019-05-03T11:42:00.178Z,3.80
2019-05-03T11:44:51.027Z,3.25
2019-05-03T11:47:41.992Z,3.30
2019-05-03T11:50:34.737Z,3.10
2019-05-03T11:53:25.996Z,3.20
2019-05-03T11:56:17.023Z,3.22
2019-05-03T11:59:07.688Z,2.80
2019-05-03T12:02:10.907Z,2.98
2019-05-03T12:05:04.876Z,3.10
2019-05-03T12:07:55.825Z,3.10
2019-05-03T12:10:56.286Z,3.00
2019-05-03T12:13:39.912Z,3.30
2019-05-03T12:17:07.699Z,3.08
2019-05-03T12:19:30.177Z,3.40
2019-05-03T12:22:17.781Z,3.27
2019-05-03T12:25:10.471Z,2.98
2019-05-03T12:28:01.571Z,2.80
2019-05-03T12:30:52.620Z,2.80
2019-05-03T12:33:45.978Z,2.85
2019-05-03T12:36:39.154Z,2.80
2019-05-03T12:39:30.838Z,2.87
2019-05-03T12:42:22.202Z,2.75
2019-05-03T12:45:15.176Z,2.90
2019-05-03T12:48:06.003Z,3.08
2019-05-03T12:50:57.220Z,3.62
2019-05-03T12:53:48.605Z,3.83
2019-05-03T12:56:40.468Z,3.90
2019-05-03T12:59:46.507Z,4.17
2019-05-03T13:02:41.467Z,3.40
2019-05-03T13:05:32.395Z,3.40
2019-05-03T13:08:54.876Z,3.22
2019-05-03T13:11:55.347Z,2.47
2019-05-03T13:14:39.656Z,2.70
2019-05-03T13:17:37.057Z,2.80
2019-05-03T13:20:27.876Z,2.70
2019-05-03T13:23:18.892Z,2.62
2019-05-03T13:26:09.844Z,2.50
2019-05-03T13:29:00.994Z,2.62
2019-05-03T13:32:00.039Z,2.60
2019-05-03T13:34:45.091Z,2.50
2019-05-03T13:37:36.091Z,2.80
2019-05-03T13:40:27.212Z,2.55
2019-05-03T13:43:17.551Z,2.50
2019-05-03T13:46:08.032Z,2.20
2019-05-03T13:49:00.090Z,2.40
2019-05-03T13:51:50.605Z,2.67
2019-05-03T13:54:41.273Z,2.50
2019-05-03T13:57:31.806Z,2.67
2019-05-03T14:00:21.112Z,3.13
2019-05-03T14:03:11.169Z,2.80
2019-05-03T14:06:01.593Z,2.77
2019-05-03T14:08:51.986Z,2.80
2019-05-03T14:11:44.659Z,2.90
2019-05-03T14:14:55.831Z,2.60
2019-05-03T14:17:45.301Z,2.70
2019-05-03T14:21:06.841Z,2.60
2019-05-03T14:24:15.606Z,2.80
2019-05-03T14:27:05.648Z,2.33
2019-05-03T14:29:56.100Z,2.53
2019-05-03T14:32:46.762Z,2.63
2019-05-03T14:35:37.151Z,2.40
2019-05-03T14:38:27.483Z,2.57
2019-05-03T14:41:18.141Z,2.70
2019-05-03T14:44:08.984Z,2.40
2019-05-03T14:46:59.384Z,2.83
2019-05-03T14:49:49.732Z,2.30
2019-05-03T14:52:40.179Z,2.67
2019-05-03T14:55:51.168Z,2.50
2019-05-03T14:59:09.411Z,2.77
2019-05-03T15:02:08.893Z,2.27
2019-05-03T15:04:59.215Z,2.53
2019-05-03T15:07:49.444Z,2.73
2019-05-03T15:10:39.753Z,2.50
2019-05-03T15:13:30.141Z,2.43
2019-05-03T15:16:20.340Z,2.40
2019-05-03T15:19:10.677Z,2.43
2019-05-03T15:22:00.810Z,2.70
2019-05-03T15:24:51.205Z,2.40
2019-05-03T15:27:41.767Z,2.73
2019-05-03T15:30:32.362Z,2.20
2019-05-03T15:33:22.915Z,2.60
2019-05-03T15:36:15.356Z,2.80
2019-05-03T15:39:06.397Z,2.57
2019-05-03T15:41:58.799Z,2.60
2019-05-03T15:45:14.612Z,2.73
2019-05-03T15:48:15.185Z,2.70
2019-05-03T15:51:05.616Z,2.43
2019-05-03T15:53:56.322Z,2.70
2019-05-03T15:56:46.884Z,2.40
2019-05-03T15:59:37.427Z,2.33
2019-05-03T16:02:27.861Z,2.47
2019-05-03T16:05:18.402Z,2.70
2019-05-03T16:08:08.841Z,2.50
2019-05-03T16:10:59.052Z,2.60
2019-05-03T16:13:50.260Z,2.57
2019-05-03T16:16:40.494Z,2.57
2019-05-03T16:19:31.008Z,2.50
2019-05-03T16:22:21.652Z,2.33
2019-05-03T16:25:14.266Z,2.37
2019-05-03T16:28:26.782Z,2.27
2019-05-03T16:31:19.734Z,2.30
2019-05-03T16:34:10.332Z,2.60
2019-05-03T16:37:00.663Z,2.57
2019-05-03T16:39:51.310Z,2.50
2019-05-03T16:42:41.779Z,2.27
2019-05-03T16:45:32.500Z,2.30
2019-05-03T16:48:24.543Z,2.20
2019-05-03T16:51:17.134Z,2.23
2019-05-03T16:54:07.023Z,2.40
2019-05-03T16:56:58.581Z,2.33
2019-05-03T16:59:49.156Z,2.40
2019-05-03T17:02:39.392Z,2.27
2019-05-03T17:05:57.746Z,2.43
2019-05-03T17:09:07.811Z,2.47
2019-05-03T17:12:10.379Z,2.00
2019-05-03T17:15:00.808Z,2.30
2019-05-03T17:17:51.342Z,2.63
2019-05-03T17:20:41.900Z,2.10
2019-05-03T17:23:35.436Z,2.40
2019-05-03T17:26:25.777Z,2.53
2019-05-03T17:29:16.385Z,2.23
2019-05-03T17:32:06.959Z,2.40
2019-05-03T17:34:57.437Z,2.20
2019-05-03T17:37:47.959Z,2.33
2019-05-03T17:40:55.820Z,2.37
2019-05-03T17:43:59.132Z,2.53
2019-05-03T17:46:51.412Z,2.57
2019-05-03T17:49:41.944Z,2.30
2019-05-03T17:52:57.505Z,2.40
2019-05-03T17:56:05.338Z,2.40
2019-05-03T17:58:58.938Z,2.40
2019-05-03T18:02:23.353Z,2.50
2019-05-03T18:05:32.218Z,2.20
2019-05-03T18:08:42.314Z,2.30
2019-05-03T18:11:38.624Z,2.30
2019-05-03T18:14:29.261Z,2.13
2019-05-03T18:17:19.667Z,2.30
2019-05-03T18:20:09.900Z,2.50
2019-05-03T18:23:01.274Z,2.27
2019-05-03T18:25:51.518Z,2.53
2019-05-03T18:28:41.968Z,2.40
2019-05-03T18:31:32.483Z,2.60
2019-05-03T18:34:24.940Z,2.60
2019-05-03T18:37:15.388Z,2.27
2019-05-03T18:40:06.948Z,2.30
2019-05-03T18:43:04.528Z,2.50
2019-05-03T18:46:12.063Z,2.33
2019-05-03T18:49:04.882Z,2.70
2019-05-03T18:51:55.493Z,2.50
2019-05-03T18:54:45.827Z,2.43
2019-05-03T18:57:36.382Z,2.80
2019-05-03T19:00:27.304Z,2.80
2019-05-03T19:03:17.969Z,2.83
2019-05-03T19:06:09.757Z,2.40
2019-05-03T19:09:11.406Z,2.87
2019-05-03T19:12:12.782Z,2.70
2019-05-03T19:15:05.192Z,2.77
2019-05-03T19:17:59.760Z,2.50
2019-05-03T19:20:49.834Z,2.63
2019-05-03T19:23:40.342Z,2.60
2019-05-03T19:26:31.832Z,2.90
2019-05-03T19:29:22.400Z,2.60
2019-05-03T19:32:15.055Z,2.93
2019-05-03T19:35:07.141Z,2.83
2019-05-03T19:38:00.164Z,2.60
2019-05-03T19:40:50.980Z,2.60
2019-05-03T19:43:41.408Z,2.90
2019-05-03T19:46:31.632Z,2.40
2019-05-03T19:49:22.410Z,2.50
2019-05-03T19:52:14.641Z,2.97
2019-05-03T19:55:05.707Z,2.80
2019-05-03T19:57:56.198Z,2.87
2019-05-03T20:01:14.855Z,2.70
2019-05-03T20:04:27.854Z,2.70
2019-05-03T20:07:30.223Z,2.83
2019-05-03T20:10:20.428Z,2.77
2019-05-03T20:13:10.567Z,3.10
2019-05-03T20:16:01.195Z,2.90
2019-05-03T20:18:51.670Z,2.80
2019-05-03T20:21:42.259Z,3.00
2019-05-03T20:24:33.527Z,3.43
2019-05-03T20:27:24.467Z,3.50
2019-05-03T20:30:15.260Z,2.93
2019-05-03T20:33:05.736Z,3.17
2019-05-03T20:35:57.172Z,2.97
2019-05-03T20:38:47.763Z,3.20
2019-05-03T20:41:38.328Z,3.37
2019-05-03T20:44:47.433Z,3.63
2019-05-03T20:47:51.070Z,3.60
2019-05-03T20:50:44.607Z,3.17
2019-05-03T20:53:34.678Z,3.07
2019-05-03T20:56:25.901Z,2.80
2019-05-03T20:59:16.255Z,2.90
2019-05-03T21:02:06.554Z,3.20
2019-05-03T21:04:57.073Z,3.13
2019-05-03T21:07:47.634Z,3.37
2019-05-03T21:10:37.933Z,3.13
2019-05-03T21:13:39.224Z,3.53
2019-05-03T21:16:51.768Z,3.20
2019-05-03T21:20:01.236Z,3.33
2019-05-03T21:22:51.707Z,3.33
2019-05-03T21:26:03.611Z,3.03
2019-05-03T21:28:38.545Z,3.43
2019-05-03T21:31:28.917Z,3.33
2019-05-03T21:34:19.390Z,3.40
2019-05-03T21:37:10.048Z,3.20
2019-05-03T21:40:00.272Z,3.00
2019-05-03T21:42:50.452Z,3.40
2019-05-03T21:45:48.901Z,3.30
2019-05-03T21:48:57.161Z,3.00
2019-05-03T21:51:47.380Z,3.07
2019-05-03T21:54:37.945Z,3.10
2019-05-03T21:57:28.689Z,2.90
2019-05-03T22:00:19.661Z,3.27
2019-05-03T22:03:12.093Z,2.93
2019-05-03T22:06:02.427Z,2.97
2019-05-03T22:08:55.376Z,2.97
2019-05-03T22:11:45.525Z,2.97
2019-05-03T22:15:05.097Z,2.90
2019-05-03T22:18:20.231Z,3.10
2019-05-03T22:21:36.950Z,2.90
2019-05-03T22:24:36.590Z,2.90
2019-05-03T22:27:30.351Z,2.97
2019-05-03T22:30:20.646Z,2.83
2019-05-03T22:33:11.115Z,3.13
2019-05-03T22:36:08.653Z,2.83
2019-05-03T22:38:54.490Z,3.30
2019-05-03T22:41:45.320Z,2.80
2019-05-03T22:44:35.768Z,3.47
2019-05-03T22:47:26.443Z,2.60
2019-05-03T22:50:16.903Z,3.07
2019-05-03T22:53:07.037Z,3.40
2019-05-03T22:55:57.503Z,3.10
2019-05-03T22:58:47.940Z,3.07
2019-05-03T23:01:38.120Z,2.80
2019-05-03T23:04:28.364Z,3.20
2019-05-03T23:07:18.823Z,3.10
2019-05-03T23:10:09.318Z,3.23
2019-05-03T23:12:59.920Z,3.40
2019-05-03T23:15:50.916Z,3.33
2019-05-03T23:18:41.527Z,2.90
2019-05-03T23:21:51.505Z,3.27
2019-05-03T23:24:42.147Z,2.90
2019-05-03T23:27:35.342Z,2.90
2019-05-03T23:30:26.198Z,2.97
2019-05-03T23:33:17.123Z,3.13
2019-05-03T23:36:07.674Z,3.30
2019-05-03T23:38:58.379Z,2.90
2019-05-03T23:41:48.716Z,3.00
2019-05-03T23:44:38.866Z,3.40
2019-05-03T23:47:42.604Z,3.07
2019-05-03T23:50:35.235Z,2.40
2019-05-03T23:53:24.970Z,2.73
2019-05-03T23:56:20.056Z,2.83
2019-05-03T23:59:10.211Z,2.77
